createdAt,value
2022-12-23T00:00:58.314Z,100439.22
2022-12-23T00:03:25.944Z,100438.44
2022-12-23T00:05:53.348Z,100444.34
2022-12-23T00:08:21.554Z,100446.91
2022-12-23T00:10:50.661Z,100441.59
2022-12-23T00:13:36.376Z,100440.81
2022-12-23T00:16:08.358Z,100441.59
2022-12-23T00:18:37.017Z,100455.22
2022-12-23T00:21:11.928Z,100457.78
2022-12-23T00:23:41.496Z,100464.69
2022-12-23T00:26:16.197Z,100469.81
2022-12-23T00:28:42.823Z,100472.38
2022-12-23T00:31:10.747Z,100464.88
2022-12-23T00:33:40.137Z,100474.94
2022-12-23T00:36:25.198Z,100474.13
2022-12-23T00:39:10.791Z,100475.91
2022-12-23T00:41:56.828Z,100476.09
2022-12-23T00:44:23.809Z,100478.66
2022-12-23T00:46:50.928Z,100488.13
2022-12-23T00:49:37.902Z,100482.38
2022-12-23T00:52:06.812Z,100476.66
2022-12-23T00:54:34.244Z,100472.50
2022-12-23T00:57:01.313Z,100481.16
2022-12-23T00:59:27.888Z,100486.47
2022-12-23T01:02:13.408Z,100483.28
2022-12-23T01:04:58.597Z,100493.56
2022-12-23T01:07:25.675Z,100501.44
2022-12-23T01:09:55.173Z,100502.41
2022-12-23T01:12:22.199Z,100495.88
2022-12-23T01:14:49.535Z,100499.41
2022-12-23T01:17:20.385Z,100497.63
2022-12-23T01:19:47.480Z,100497.03
2022-12-23T01:22:16.670Z,100500.38
2022-12-23T01:24:43.883Z,100497.19
2022-12-23T01:27:10.719Z,100507.44
2022-12-23T01:29:37.261Z,100516.13
2022-12-23T01:32:04.656Z,100517.88
2022-12-23T01:34:37.153Z,100523.00
2022-12-23T01:37:04.752Z,100524.00
2022-12-23T01:39:31.890Z,100530.91
2022-12-23T01:42:19.836Z,100528.31
2022-12-23T01:45:03.088Z,100525.91
2022-12-23T01:48:10.052Z,100536.19
2022-12-23T01:50:48.687Z,100533.81
2022-12-23T01:53:21.477Z,100549.97
2022-12-23T01:55:50.724Z,100538.13
2022-12-23T01:58:23.621Z,100545.81
2022-12-23T02:01:08.504Z,100553.50
2022-12-23T02:03:42.834Z,100552.72
2022-12-23T02:06:36.829Z,100558.81
2022-12-23T02:09:17.466Z,100569.28
2022-12-23T02:12:09.191Z,100572.00
2022-12-23T02:15:08.164Z,100575.53
2022-12-23T02:17:49.700Z,100574.13
2022-12-23T02:20:37.992Z,100573.34
2022-12-23T02:23:45.890Z,100575.06
2022-12-23T02:26:50.259Z,100586.50
2022-12-23T02:29:44.685Z,100587.28
2022-12-23T02:32:16.065Z,100597.72
2022-12-23T02:35:10.535Z,100605.56
2022-12-23T02:37:50.778Z,100602.22
2022-12-23T02:40:35.151Z,100609.28
2022-12-23T02:43:13.862Z,100607.88
2022-12-23T02:45:47.897Z,100610.00
2022-12-23T02:48:25.924Z,100611.94
2022-12-23T02:50:58.792Z,100613.88
2022-12-23T02:53:32.295Z,100623.50
2022-12-23T02:56:04.095Z,100622.72
2022-12-23T02:58:37.864Z,100631.34
2022-12-23T03:01:08.251Z,100635.06
2022-12-23T03:03:37.561Z,100642.94
2022-12-23T03:06:17.657Z,100647.28
2022-12-23T03:08:46.142Z,100640.91
2022-12-23T03:11:16.051Z,100649.56
2022-12-23T03:14:21.599Z,100648.75
2022-12-23T03:16:53.153Z,100642.84
2022-12-23T03:19:51.211Z,100652.28
2022-12-23T03:22:33.360Z,100640.63
2022-12-23T03:25:18.348Z,100639.19
2022-12-23T03:27:52.880Z,100636.00
2022-12-23T03:30:26.328Z,100632.03
2022-12-23T03:32:57.227Z,100633.34
2022-12-23T03:35:30.995Z,100641.84
2022-12-23T03:38:01.599Z,100631.78
2022-12-23T03:40:41.890Z,100629.22
2022-12-23T03:43:14.929Z,100635.13
2022-12-23T03:45:53.530Z,100635.13
2022-12-23T03:48:26.992Z,100639.59
2022-12-23T03:51:00.417Z,100641.38
2022-12-23T03:53:34.847Z,100645.88
2022-12-23T03:56:09.584Z,100644.13
2022-12-23T03:58:47.842Z,100640.75
2022-12-23T04:01:43.283Z,100634.66
2022-12-23T04:04:19.836Z,100637.22
2022-12-23T04:07:00.403Z,100650.81
2022-12-23T04:09:31.104Z,100657.53
2022-12-23T04:11:58.391Z,100660.28
2022-12-23T04:14:25.249Z,100669.53
2022-12-23T04:16:55.339Z,100675.63
2022-12-23T04:19:22.259Z,100672.09
2022-12-23T04:21:49.702Z,100681.41
2022-12-23T04:24:16.692Z,100691.00
2022-12-23T04:26:47.736Z,100691.78
2022-12-23T04:29:15.444Z,100692.59
2022-12-23T04:31:44.517Z,100696.13
2022-12-23T04:34:18.359Z,100705.25
2022-12-23T04:36:47.589Z,100702.50
2022-12-23T04:39:14.254Z,100696.78
2022-12-23T04:41:40.881Z,100698.19
2022-12-23T04:44:08.031Z,100681.03
2022-12-23T04:46:35.008Z,100682.81
2022-12-23T04:49:07.750Z,100689.69
2022-12-23T04:51:34.403Z,100690.50
2022-12-23T04:54:01.501Z,100688.72
2022-12-23T04:56:28.635Z,100681.66
2022-12-23T04:58:55.576Z,100673.97
2022-12-23T05:01:22.922Z,100671.78
2022-12-23T05:03:49.962Z,100671.78
2022-12-23T05:06:16.898Z,100671.78
2022-12-23T05:08:43.655Z,100682.63
2022-12-23T05:11:10.654Z,100669.22
2022-12-23T05:13:37.257Z,100668.84
2022-12-23T05:16:04.008Z,100679.09
2022-12-23T05:18:31.421Z,100684.56
2022-12-23T05:20:58.966Z,100683.59
2022-12-23T05:23:26.243Z,100688.72
2022-12-23T05:25:55.078Z,100697.38
2022-12-23T05:28:23.055Z,100695.63
2022-12-23T05:30:57.424Z,100701.53
2022-12-23T05:33:27.691Z,100701.53
2022-12-23T05:35:58.823Z,100707.44
2022-12-23T05:38:26.014Z,100707.63
2022-12-23T05:40:55.291Z,100719.81
2022-12-23T05:43:22.488Z,100720.16
2022-12-23T05:45:50.095Z,100722.88
2022-12-23T05:48:19.957Z,100732.34
2022-12-23T05:50:50.255Z,100723.41
2022-12-23T05:53:18.659Z,100723.56
2022-12-23T05:55:47.359Z,100724.03
2022-12-23T05:58:15.005Z,100723.56
2022-12-23T06:00:41.889Z,100725.16
2022-12-23T06:03:09.265Z,100725.81
2022-12-23T06:05:37.907Z,100721.63
2022-12-23T06:08:05.286Z,100727.72
2022-12-23T06:10:33.459Z,100722.97
2022-12-23T06:13:00.890Z,100715.44
2022-12-23T06:15:32.547Z,100709.97
2022-12-23T06:17:59.628Z,100719.59
2022-12-23T06:20:30.147Z,100723.91
2022-12-23T06:22:58.333Z,100719.59
2022-12-23T06:25:27.883Z,100702.97
2022-12-23T06:27:55.180Z,100702.19
2022-12-23T06:30:25.537Z,100698.97
2022-12-23T06:32:52.047Z,100694.50
2022-12-23T06:35:19.811Z,100706.94
2022-12-23T06:37:46.760Z,100695.63
2022-12-23T06:40:14.998Z,100703.16
2022-12-23T06:42:42.188Z,100710.19
2022-12-23T06:45:11.969Z,100707.03
2022-12-23T06:47:39.420Z,100715.66
2022-12-23T06:50:10.328Z,100715.81
2022-12-23T06:52:37.711Z,100720.13
2022-12-23T06:55:05.006Z,100727.03
2022-12-23T06:57:31.616Z,100732.31
2022-12-23T07:00:04.122Z,100735.69
2022-12-23T07:02:31.458Z,100737.91
2022-12-23T07:04:58.898Z,100736.94
2022-12-23T07:07:27.672Z,100741.25
2022-12-23T07:09:55.454Z,100749.56
2022-12-23T07:12:22.284Z,100749.75
2022-12-23T07:14:51.600Z,100749.88
2022-12-23T07:17:18.500Z,100754.22
2022-12-23T07:19:45.446Z,100759.19
2022-12-23T07:22:12.053Z,100755.00
2022-12-23T07:24:39.140Z,100767.66
2022-12-23T07:27:05.970Z,100765.09
2022-12-23T07:29:32.816Z,100771.19
2022-12-23T07:32:02.571Z,100769.41
2022-12-23T07:34:29.576Z,100765.59
2022-12-23T07:36:56.609Z,100764.00
2022-12-23T07:39:23.168Z,100774.38
2022-12-23T07:42:03.826Z,100767.84
2022-12-23T07:44:38.437Z,100764.31
2022-12-23T07:47:05.780Z,100751.22
2022-12-23T07:49:33.071Z,100742.94
2022-12-23T07:52:02.175Z,100741.34
2022-12-23T07:54:28.683Z,100743.25
2022-12-23T07:56:56.292Z,100750.31
2022-12-23T07:59:25.770Z,100737.81
2022-12-23T08:01:53.910Z,100739.09
2022-12-23T08:04:21.863Z,100739.69
2022-12-23T08:06:48.809Z,100754.09
2022-12-23T08:09:16.137Z,100743.84
2022-12-23T08:11:45.452Z,100740.19
2022-12-23T08:14:12.914Z,100740.31
2022-12-23T08:16:44.578Z,100726.72
2022-12-23T08:19:11.180Z,100733.28
2022-12-23T08:21:38.117Z,100736.78
2022-12-23T08:24:06.316Z,100731.53
2022-12-23T08:26:33.551Z,100731.34
2022-12-23T08:29:00.501Z,100731.03
2022-12-23T08:31:32.406Z,100729.09
2022-12-23T08:34:00.904Z,100728.13
2022-12-23T08:36:31.278Z,100724.59
2022-12-23T08:39:00.652Z,100720.91
2022-12-23T08:41:30.802Z,100720.53
2022-12-23T08:44:00.216Z,100698.16
2022-12-23T08:46:27.572Z,100706.63
2022-12-23T08:48:55.921Z,100716.69
2022-12-23T08:51:24.402Z,100714.13
2022-12-23T08:53:57.914Z,100709.66
2022-12-23T08:56:32.396Z,100704.53
2022-12-23T08:58:59.787Z,100694.13
2022-12-23T09:01:29.708Z,100693.13
2022-12-23T09:03:56.948Z,100688.66
2022-12-23T09:06:29.655Z,100680.19
2022-12-23T09:09:00.268Z,100680.03
2022-12-23T09:11:29.678Z,100678.28
2022-12-23T09:13:56.845Z,100673.94
2022-12-23T09:16:24.396Z,100671.22
2022-12-23T09:18:51.656Z,100676.94
2022-12-23T09:21:21.788Z,100685.41
2022-12-23T09:23:49.198Z,100669.25
2022-12-23T09:26:27.975Z,100672.47
2022-12-23T09:28:55.505Z,100671.66
2022-12-23T09:31:23.201Z,100667.16
2022-12-23T09:33:54.680Z,100663.63
2022-12-23T09:36:22.728Z,100667.97
2022-12-23T09:38:55.500Z,100660.09
2022-12-23T09:41:36.604Z,100660.91
2022-12-23T09:44:12.822Z,100663.28
2022-12-23T09:46:53.880Z,100665.84
2022-12-23T09:49:25.531Z,100662.31
2022-12-23T09:51:57.937Z,100651.28
2022-12-23T09:54:29.151Z,100655.44
2022-12-23T09:57:35.615Z,100645.97
2022-12-23T10:00:11.483Z,100640.06
2022-12-23T10:03:07.453Z,100632.19
2022-12-23T10:05:56.707Z,100618.59
2022-12-23T10:09:00.315Z,100613.16
2022-12-23T10:11:32.694Z,100594.25
2022-12-23T10:14:11.917Z,100593.91
2022-12-23T10:16:47.111Z,100585.25
2022-12-23T10:19:20.346Z,100588.78
2022-12-23T10:21:52.909Z,100587.16
2022-12-23T10:24:20.404Z,100583.66
2022-12-23T10:26:53.609Z,100576.78
2022-12-23T10:29:25.326Z,100586.84
2022-12-23T10:32:12.130Z,100578.97
2022-12-23T10:35:15.998Z,100571.13
2022-12-23T10:38:00.618Z,100572.72
2022-12-23T10:40:43.791Z,100570.56
2022-12-23T10:43:45.563Z,100577.13
2022-12-23T10:46:24.093Z,100567.50
2022-12-23T10:49:36.354Z,100560.59
2022-12-23T10:52:12.730Z,100557.88
2022-12-23T10:54:43.112Z,100554.50
2022-12-23T10:57:10.676Z,100558.66
2022-12-23T10:59:40.099Z,100550.19
2022-12-23T11:02:14.053Z,100549.81
2022-12-23T11:04:52.590Z,100548.22
2022-12-23T11:10:23.549Z,100535.09
2022-12-23T11:12:53.372Z,100528.78
2022-12-23T11:15:32.784Z,100524.47
2022-12-23T11:18:03.396Z,100521.72
2022-12-23T11:20:30.676Z,100519.16
2022-12-23T11:23:01.858Z,100517.38
2022-12-23T11:25:31.314Z,100522.50
2022-12-23T11:28:00.192Z,100516.59
2022-12-23T11:30:30.417Z,100529.41
2022-12-23T11:33:00.240Z,100526.84
2022-12-23T11:35:34.457Z,100509.88
2022-12-23T11:38:03.329Z,100502.00
2022-12-23T11:40:34.432Z,100498.50
2022-12-23T11:43:04.031Z,100494.94
2022-12-23T11:45:35.595Z,100482.13
2022-12-23T11:48:05.396Z,100464.00
2022-12-23T11:50:38.210Z,100454.56
2022-12-23T11:53:22.528Z,100445.09
2022-12-23T11:56:04.327Z,100445.09
2022-12-23T11:58:40.681Z,100436.44
2022-12-23T12:01:19.094Z,100429.38
2022-12-23T12:03:52.616Z,100418.31
2022-12-23T12:06:20.512Z,100413.19
2022-12-23T12:08:53.305Z,100416.56
2022-12-23T12:11:36.859Z,100407.28
2022-12-23T12:14:06.494Z,100402.94
2022-12-23T12:17:04.719Z,100397.03
2022-12-23T12:19:59.654Z,100394.47
2022-12-23T12:22:34.992Z,100393.69
2022-12-23T12:25:16.840Z,100390.28
2022-12-23T12:27:52.435Z,100396.25
2022-12-23T12:30:21.197Z,100396.25
2022-12-23T12:33:02.146Z,100393.69
2022-12-23T12:35:53.465Z,100372.34
2022-12-23T12:38:36.805Z,100362.28
2022-12-23T12:41:37.959Z,100342.78
2022-12-23T12:44:35.980Z,100337.66
2022-12-23T12:47:55.775Z,100341.19
2022-12-23T12:50:29.439Z,100327.59
2022-12-23T12:53:03.653Z,100313.22
2022-12-23T12:55:34.941Z,100307.25
2022-12-23T12:58:04.777Z,100305.69
2022-12-23T13:00:48.115Z,100295.44
2022-12-23T13:03:30.879Z,100296.41
2022-12-23T13:06:09.468Z,100292.88
2022-12-23T13:08:46.138Z,100283.59
2022-12-23T13:11:28.506Z,100281.81
2022-12-23T13:14:08.146Z,100273.34
2022-12-23T13:16:46.802Z,100278.28
2022-12-23T13:19:31.536Z,100278.28
2022-12-23T13:22:20.425Z,100276.69
2022-12-23T13:24:53.314Z,100271.59
2022-12-23T13:27:57.692Z,100266.66
2022-12-23T13:30:34.324Z,100272.56
2022-12-23T13:33:07.615Z,100265.06
2022-12-23T13:36:06.055Z,100266.84
2022-12-23T13:38:59.952Z,100255.81
2022-12-23T13:41:49.991Z,100261.72
2022-12-23T13:44:18.899Z,100259.31
2022-12-23T13:47:22.788Z,100255.81
2022-12-23T13:50:17.631Z,100261.09
2022-12-23T13:53:01.208Z,100261.88
2022-12-23T13:56:06.702Z,100250.03
2022-12-23T13:58:33.724Z,100238.22
2022-12-23T14:01:06.038Z,100229.75
2022-12-23T14:03:37.674Z,100227.19
2022-12-23T14:06:26.292Z,100206.88
2022-12-23T14:08:58.056Z,100207.03
2022-12-23T14:11:29.113Z,100194.06
2022-12-23T14:14:08.228Z,100186.38
2022-12-23T14:17:05.582Z,100178.88
2022-12-23T14:20:23.183Z,100171.97
2022-12-23T14:23:01.425Z,100174.19
2022-12-23T14:26:02.793Z,100183.09
2022-12-23T14:29:08.955Z,100183.31
2022-12-23T14:31:49.614Z,100174.44
2022-12-23T14:34:19.771Z,100165.00
2022-12-23T14:37:15.413Z,100159.88
2022-12-23T14:39:43.081Z,100161.03
2022-12-23T14:42:16.599Z,100164.59
2022-12-23T14:44:46.968Z,100168.91
2022-12-23T14:47:33.944Z,100170.66
2022-12-23T14:50:34.678Z,100176.59
2022-12-23T14:53:03.870Z,100178.34
2022-12-23T14:55:33.190Z,100180.91
2022-12-23T14:58:17.016Z,100195.34
2022-12-23T15:00:50.519Z,100194.34
2022-12-23T15:03:19.645Z,100184.88
2022-12-23T15:05:46.937Z,100178.19
2022-12-23T15:08:38.128Z,100176.59
2022-12-23T15:11:08.616Z,100169.72
2022-12-23T15:13:38.396Z,100172.28
2022-12-23T15:16:09.387Z,100174.22
2022-12-23T15:18:36.532Z,100171.06
2022-12-23T15:21:11.102Z,100163.38
2022-12-23T15:23:38.420Z,100147.56
2022-12-23T15:26:07.439Z,100157.03
2022-12-23T15:28:40.938Z,100150.53
2022-12-23T15:31:24.990Z,100156.59
2022-12-23T15:34:02.866Z,100164.28
2022-12-23T15:36:39.156Z,100158.56
2022-12-23T15:39:19.026Z,100152.66
2022-12-23T15:41:47.541Z,100149.31
2022-12-23T15:44:34.729Z,100148.69
2022-12-23T15:47:02.110Z,100131.72
2022-12-23T15:49:29.102Z,100128.56
2022-12-23T15:52:10.606Z,100151.63
2022-12-23T15:54:46.352Z,100153.41
2022-12-23T15:57:19.731Z,100157.72
2022-12-23T15:59:46.629Z,100139.81
2022-12-23T16:03:00.367Z,100136.47
2022-12-23T16:05:46.390Z,100127.97
2022-12-23T16:08:13.513Z,100161.28
2022-12-23T16:11:06.791Z,100182.56
2022-12-23T16:13:34.249Z,100188.47
2022-12-23T16:16:28.995Z,100170.53
2022-12-23T16:18:58.774Z,100165.22
2022-12-23T16:21:31.301Z,100170.34
2022-12-23T16:23:59.594Z,100185.38
2022-12-23T16:26:26.370Z,100179.25
2022-12-23T16:29:00.627Z,100172.94
2022-12-23T16:31:28.117Z,100171.97
2022-12-23T16:33:57.650Z,100166.06
2022-12-23T16:36:31.158Z,100160.16
2022-12-23T16:39:07.100Z,100149.91
2022-12-23T16:41:34.332Z,100155.22
2022-12-23T16:44:01.398Z,100169.78
2022-12-23T16:46:32.170Z,100164.66
2022-12-23T16:49:01.033Z,100172.34
2022-12-23T16:51:30.437Z,100170.78
2022-12-23T16:53:58.318Z,100180.03
2022-12-23T16:56:28.657Z,100175.13
2022-12-23T16:58:56.675Z,100177.69
2022-12-23T17:01:25.319Z,100176.06
2022-12-23T17:03:52.395Z,100174.50
2022-12-23T17:06:22.255Z,100175.47
2022-12-23T17:08:50.345Z,100184.72
2022-12-23T17:11:22.539Z,100181.19
2022-12-23T17:13:49.002Z,100190.66
2022-12-23T17:16:21.422Z,100181.38
2022-12-23T17:18:49.736Z,100171.72
2022-12-23T17:21:28.702Z,100176.06
2022-12-23T17:24:13.563Z,100182.97
2022-12-23T17:26:41.638Z,100199.91
2022-12-23T17:29:14.457Z,100210.16
2022-12-23T17:31:43.346Z,100196.56
2022-12-23T17:34:15.547Z,100187.09
2022-12-23T17:36:49.233Z,100192.22
2022-12-23T17:39:16.767Z,100196.41
2022-12-23T17:41:43.419Z,100197.19
2022-12-23T17:44:14.310Z,100190.88
2022-12-23T17:46:43.739Z,100188.56
2022-12-23T17:49:12.166Z,100188.00
2022-12-23T17:51:40.600Z,100184.09
2022-12-23T17:54:11.026Z,100186.28
2022-12-23T17:56:38.011Z,100189.84
2022-12-23T17:59:06.327Z,100183.38
2022-12-23T18:01:34.048Z,100187.75
2022-12-23T18:04:00.673Z,100183.06
2022-12-23T18:06:28.828Z,100184.28
2022-12-23T18:09:02.212Z,100187.88
2022-12-23T18:11:39.046Z,100200.09
2022-12-23T18:14:07.710Z,100202.50
2022-12-23T18:16:34.715Z,100201.16
2022-12-23T18:19:01.290Z,100200.19
2022-12-23T18:21:28.750Z,100203.97
2022-12-23T18:23:59.659Z,100213.81
2022-12-23T18:26:26.444Z,100215.81
2022-12-23T18:28:54.666Z,100215.44
2022-12-23T18:31:27.655Z,100220.97
2022-12-23T18:33:54.522Z,100219.81
2022-12-23T18:36:33.568Z,100234.03
2022-12-23T18:39:01.264Z,100230.91
2022-12-23T18:41:28.030Z,100228.75
2022-12-23T18:43:55.941Z,100228.56
2022-12-23T18:46:23.521Z,100226.56
2022-12-23T18:48:51.857Z,100235.69
2022-12-23T18:51:21.336Z,100237.25
2022-12-23T18:53:49.138Z,100246.53
2022-12-23T18:56:21.182Z,100253.25
2022-12-23T18:58:48.747Z,100254.06
2022-12-23T19:01:17.472Z,100261.75
2022-12-23T19:03:46.784Z,100258.22
2022-12-23T19:06:15.706Z,100262.16
2022-12-23T19:08:44.289Z,100265.50
2022-12-23T19:11:21.128Z,100259.38
2022-12-23T19:13:51.633Z,100257.03
2022-12-23T19:16:25.953Z,100266.69
2022-12-23T19:18:54.444Z,100263.34
2022-12-23T19:21:23.276Z,100268.47
2022-12-23T19:23:50.273Z,100264.72
2022-12-23T19:26:17.217Z,100256.22
2022-12-23T19:28:43.986Z,100256.22
2022-12-23T19:31:15.679Z,100267.91
2022-12-23T19:33:45.343Z,100273.22
2022-12-23T19:36:14.871Z,100276.75
2022-12-23T19:38:43.103Z,100281.91
2022-12-23T19:41:13.056Z,100288.22
2022-12-23T19:43:40.272Z,100290.94
2022-12-23T19:46:09.457Z,100301.03
2022-12-23T19:48:39.144Z,100290.78
2022-12-23T19:51:11.439Z,100295.72
2022-12-23T19:53:39.328Z,100303.22
2022-12-23T20:12:00.651Z,100333.22
2022-12-23T20:14:32.128Z,100342.34
2022-12-23T20:17:01.103Z,100335.44
2022-12-23T20:19:27.952Z,100328.50
2022-12-23T20:21:56.219Z,100340.16
2022-12-23T20:24:23.149Z,100339.38
2022-12-23T20:26:49.866Z,100348.84
2022-12-23T20:29:17.352Z,100349.63
2022-12-23T20:31:46.361Z,100353.78
2022-12-23T20:34:17.298Z,100356.34
2022-12-23T20:36:44.603Z,100360.50
2022-12-23T20:39:11.910Z,100368.41
2022-12-23T20:41:43.245Z,100364.25
2022-12-23T20:44:33.785Z,100376.28
2022-12-23T20:46:57.638Z,100377.09
2022-12-23T20:49:24.666Z,100381.03
2022-12-23T20:51:51.909Z,100383.59
2022-12-23T20:54:24.929Z,100386.78
2022-12-23T20:56:56.088Z,100398.63
2022-12-23T20:59:23.123Z,100399.63
2022-12-23T21:01:50.678Z,100406.34
2022-12-23T21:04:17.838Z,100414.81
2022-12-23T21:06:44.885Z,100419.75
2022-12-23T21:09:13.779Z,100424.09
2022-12-23T21:11:43.318Z,100421.19
2022-12-23T21:14:11.697Z,100433.81
2022-12-23T21:16:38.927Z,100429.31
2022-12-23T21:19:07.207Z,100441.72
2022-12-23T21:21:34.144Z,100441.13
2022-12-23T21:24:04.719Z,100447.22
2022-12-23T21:26:33.041Z,100451.38
2022-12-23T21:29:10.343Z,100448.97
2022-12-23T21:31:40.095Z,100438.56
2022-12-23T21:34:12.316Z,100449.41
2022-12-23T21:36:39.827Z,100451.97
2022-12-23T21:39:07.920Z,100471.72
2022-12-23T21:41:36.811Z,100468.97
2022-12-23T21:44:03.964Z,100473.50
2022-12-23T21:46:30.736Z,100471.94
2022-12-23T21:48:58.532Z,100479.44
2022-12-23T21:51:31.779Z,100477.22
2022-12-23T21:54:03.770Z,100486.91
2022-12-23T21:56:33.243Z,100487.69
2022-12-23T21:59:11.647Z,100485.91
2022-12-23T22:01:38.833Z,100490.25
2022-12-23T22:04:07.910Z,100492.03
2022-12-23T22:06:37.451Z,100497.53
2022-12-23T22:09:06.473Z,100492.78
2022-12-23T22:11:37.681Z,100499.06
2022-12-23T22:14:07.410Z,100504.56
2022-12-23T22:16:37.942Z,100517.75
2022-12-23T22:19:09.802Z,100522.47
2022-12-23T22:21:37.294Z,100524.97
2022-12-23T22:24:04.591Z,100534.19
2022-12-23T22:26:32.940Z,100544.19
2022-12-23T22:29:02.887Z,100547.50
2022-12-23T22:31:50.537Z,100555.72
2022-12-23T22:34:22.747Z,100545.66
2022-12-23T22:36:50.211Z,100556.91
2022-12-23T22:39:22.024Z,100562.22
2022-12-23T22:41:52.329Z,100569.09
2022-12-23T22:44:20.536Z,100565.38
2022-12-23T22:46:47.271Z,100570.31
2022-12-23T22:49:17.927Z,100576.88
2022-12-23T22:51:44.913Z,100580.25
2022-12-23T22:54:14.438Z,100590.06
2022-12-23T22:56:44.279Z,100580.78
2022-12-23T22:59:21.071Z,100582.75
2022-12-23T23:01:48.783Z,100579.53
2022-12-23T23:04:15.586Z,100584.66
2022-12-23T23:06:42.637Z,100590.00
2022-12-23T23:09:16.028Z,100596.34
2022-12-23T23:11:44.365Z,100599.97
2022-12-23T23:14:11.529Z,100607.47
2022-12-23T23:16:40.233Z,100599.97
2022-12-23T23:19:09.401Z,100603.94
2022-12-23T23:21:37.755Z,100611.81
2022-12-23T23:24:05.349Z,100614.38
2022-12-23T23:26:31.968Z,100624.66
2022-12-23T23:28:58.586Z,100617.75
2022-12-23T23:31:41.959Z,100605.25
2022-12-23T23:34:09.998Z,100621.09
2022-12-23T23:36:36.893Z,100618.72
2022-12-23T23:39:03.570Z,100623.47
2022-12-23T23:41:30.289Z,100622.69
2022-12-23T23:43:57.751Z,100625.09
2022-12-23T23:46:24.874Z,100634.72
2022-12-23T23:48:54.741Z,100640.47
2022-12-23T23:51:21.841Z,100647.34
2022-12-23T23:53:52.936Z,100648.53
2022-12-23T23:56:25.333Z,100654.63
2022-12-23T23:58:53.442Z,100657.38
